Time;durP1;ratioP1;P1;durP2;ratioP2;P2;SDS_P1;SDS_P2;PMS_P1;PMS_P2;Temp;Humidity;BMP_temperature;BMP_pressure;BME280_temperature;BME280_humidity;BME280_pressure;Samples;Min_cycle;Max_cycle;Signal;HPM_P1;HPM_P2
2023/04/05 00:01:57;;;;;;;5.30;4.80;;;5.50;90.50;;;;;;5105154;28;20221;-76
2023/04/05 00:04:24;;;;;;;5.40;4.88;;;5.50;90.60;;;;;;5094921;28;20201;-75
2023/04/05 00:06:53;;;;;;;5.43;5.03;;;5.50;90.70;;;;;;5093049;28;20201;-77
2023/04/05 00:09:20;;;;;;;5.05;4.65;;;5.50;90.80;;;;;;5090003;28;20208;-76
2023/04/05 00:11:48;;;;;;;5.07;4.50;;;5.40;91.10;;;;;;5090403;28;20310;-76
2023/04/05 00:14:16;;;;;;;4.47;4.07;;;5.40;91.10;;;;;;5085509;28;20202;-76
2023/04/05 00:16:43;;;;;;;4.90;4.50;;;5.40;91.30;;;;;;5085464;28;20214;-75
2023/04/05 00:19:11;;;;;;;4.63;4.22;;;5.30;91.20;;;;;;5087697;28;20548;-76
2023/04/05 00:21:39;;;;;;;6.05;5.45;;;5.40;91.30;;;;;;5084961;28;20222;-75
2023/04/05 00:24:08;;;;;;;5.35;4.85;;;5.40;91.30;;;;;;5082141;28;20221;-76
2023/04/05 00:26:35;;;;;;;5.57;5.10;;;5.30;91.50;;;;;;5086051;28;20224;-76
2023/04/05 00:29:02;;;;;;;4.72;4.43;;;5.30;91.40;;;;;;5088560;28;20238;-75
2023/04/05 00:31:31;;;;;;;5.32;4.93;;;5.30;91.50;;;;;;5085819;28;20267;-76
2023/04/05 00:33:58;;;;;;;4.88;4.47;;;5.20;91.60;;;;;;5089536;28;20259;-75
2023/04/05 00:36:25;;;;;;;5.25;4.85;;;5.20;92.00;;;;;;5084035;28;20317;-78
2023/04/05 00:38:52;;;;;;;5.22;4.82;;;5.20;92.00;;;;;;5081661;28;20331;-77
2023/04/05 00:41:19;;;;;;;4.72;4.40;;;5.20;91.90;;;;;;5086229;28;20886;-75
2023/04/05 00:43:46;;;;;;;4.47;4.18;;;5.20;92.10;;;;;;5085232;28;20197;-74
2023/04/05 00:46:13;;;;;;;5.32;4.93;;;5.20;92.10;;;;;;5085811;28;20190;-75
2023/04/05 00:48:42;;;;;;;4.60;4.20;;;5.10;92.20;;;;;;5086243;28;20225;-75
2023/04/05 00:51:10;;;;;;;6.20;5.70;;;5.10;92.20;;;;;;5086042;28;20214;-75
2023/04/05 00:53:38;;;;;;;4.72;4.32;;;5.10;92.30;;;;;;5086052;28;20263;-74
2023/04/05 00:56:05;;;;;;;5.15;4.68;;;5.00;92.50;;;;;;5086585;28;20256;-74
2023/04/05 00:58:33;;;;;;;5.78;5.28;;;5.00;92.40;;;;;;5083622;28;20251;-75
2023/04/05 01:01:05;;;;;;;5.43;4.50;;;5.00;92.70;;;;;;5097318;28;20206;-75
2023/04/05 01:03:35;;;;;;;5.65;5.13;;;5.00;92.60;;;;;;5084833;28;20248;-75
2023/04/05 01:06:16;;;;;;;4.93;4.53;;;5.00;92.70;;;;;;5085763;28;20217;-75
2023/04/05 01:08:52;;;;;;;4.18;3.88;;;5.00;92.70;;;;;;5082011;28;20202;-76
2023/04/05 01:11:19;;;;;;;5.03;4.63;;;5.00;92.70;;;;;;5083210;28;20218;-75
2023/04/05 01:13:46;;;;;;;4.40;4.10;;;5.00;92.80;;;;;;5080750;28;20230;-75
2023/04/05 01:16:14;;;;;;;5.43;5.03;;;5.00;92.80;;;;;;5086682;28;20214;-75
2023/04/05 01:18:45;;;;;;;5.30;4.90;;;5.00;92.80;;;;;;5081505;28;20202;-75
2023/04/05 01:21:39;;;;;;;6.22;5.72;;;5.00;93.00;;;;;;5082565;28;20230;-75
2023/04/05 01:24:19;;;;;;;5.20;4.80;;;5.00;93.30;;;;;;5085086;28;20221;-75
2023/04/05 01:27:01;;;;;;;5.70;4.90;;;5.00;93.30;;;;;;5088488;28;20258;-77
2023/04/05 01:29:50;;;;;;;4.75;4.45;;;4.90;93.00;;;;;;5089212;28;20280;-77
2023/04/05 01:32:44;;;;;;;6.78;5.05;;;4.90;93.30;;;;;;5080556;28;20270;-77
2023/04/05 01:35:18;;;;;;;5.47;4.97;;;4.80;93.40;;;;;;5086252;28;20232;-77
2023/04/05 01:37:49;;;;;;;3.97;3.67;;;4.80;93.60;;;;;;5086512;28;20206;-77
2023/04/05 01:40:17;;;;;;;4.70;4.30;;;4.80;93.40;;;;;;5084805;28;20259;-78
2023/04/05 01:42:46;;;;;;;4.90;4.47;;;4.80;93.50;;;;;;5087883;28;20248;-78
2023/04/05 01:45:14;;;;;;;5.60;5.10;;;4.80;93.60;;;;;;5087371;28;20198;-77
2023/04/05 01:47:41;;;;;;;5.30;4.80;;;4.80;93.60;;;;;;5083612;28;20601;-77
2023/04/05 01:50:09;;;;;;;5.68;5.18;;;4.70;93.70;;;;;;5086293;28;20225;-77
2023/04/05 01:52:36;;;;;;;5.00;4.60;;;4.70;93.90;;;;;;5084845;28;20218;-78
2023/04/05 01:55:03;;;;;;;5.70;5.30;;;4.60;93.90;;;;;;5086646;28;20233;-77
2023/04/05 01:57:30;;;;;;;5.10;4.70;;;4.60;94.20;;;;;;5086037;28;20289;-74
2023/04/05 01:59:57;;;;;;;5.22;4.82;;;4.60;94.20;;;;;;5100074;28;20182;-77
2023/04/05 02:02:25;;;;;;;5.28;4.78;;;4.60;94.10;;;;;;5083461;28;20239;-77
2023/04/05 02:04:52;;;;;;;5.68;5.07;;;4.60;94.30;;;;;;5084913;28;20205;-78
2023/04/05 02:07:19;;;;;;;5.82;5.32;;;4.60;94.30;;;;;;5085970;28;20221;-76
2023/04/05 02:09:46;;;;;;;5.47;5.07;;;4.60;94.40;;;;;;5087662;28;20202;-77
2023/04/05 02:12:13;;;;;;;5.30;4.95;;;4.50;94.40;;;;;;5086523;28;20245;-77
2023/04/05 02:14:40;;;;;;;5.38;4.97;;;4.40;94.50;;;;;;5083508;28;20229;-77
2023/04/05 02:17:07;;;;;;;5.18;4.68;;;4.40;94.70;;;;;;5083036;28;20244;-77
2023/04/05 02:19:39;;;;;;;5.10;4.70;;;4.30;94.80;;;;;;5082729;28;20338;-77
2023/04/05 02:22:07;;;;;;;6.45;5.85;;;4.30;94.90;;;;;;5083695;28;20221;-77
2023/04/05 02:24:34;;;;;;;5.00;4.60;;;4.20;94.90;;;;;;5083615;28;20678;-78
2023/04/05 02:27:01;;;;;;;4.97;4.68;;;4.20;95.10;;;;;;5081394;28;20208;-78
2023/04/05 02:29:30;;;;;;;5.63;5.13;;;4.20;95.20;;;;;;5079520;28;20248;-77
2023/04/05 02:31:57;;;;;;;5.10;4.68;;;4.20;95.10;;;;;;5081752;28;20263;-77
2023/04/05 02:34:24;;;;;;;5.78;5.00;;;4.20;95.30;;;;;;5087094;28;20209;-77
2023/04/05 02:36:54;;;;;;;5.85;5.35;;;4.20;95.20;;;;;;5090695;28;21303;-77
2023/04/05 02:39:21;;;;;;;5.35;4.85;;;4.20;95.40;;;;;;5083467;28;20216;-77
2023/04/05 02:41:48;;;;;;;5.28;4.85;;;4.10;95.50;;;;;;5084292;28;20225;-77
2023/04/05 02:44:15;;;;;;;5.60;5.20;;;4.20;95.50;;;;;;5085330;28;20539;-77
2023/04/05 02:46:42;;;;;;;5.55;5.15;;;4.10;95.70;;;;;;5080699;28;20234;-77
2023/04/05 02:49:09;;;;;;;5.70;5.30;;;4.10;95.80;;;;;;5083734;28;20221;-77
2023/04/05 02:51:36;;;;;;;5.60;5.10;;;4.00;96.00;;;;;;5080373;28;20217;-76
2023/04/05 02:54:05;;;;;;;5.75;5.25;;;4.00;96.10;;;;;;5081412;28;20405;-77
2023/04/05 02:56:32;;;;;;;5.45;4.97;;;4.00;95.90;;;;;;5079138;28;20217;-77
2023/04/05 02:58:59;;;;;;;5.25;4.85;;;4.00;96.00;;;;;;5094136;28;20206;-77
2023/04/05 03:01:26;;;;;;;5.07;4.60;;;4.00;96.10;;;;;;5080387;28;20227;-77
2023/04/05 03:03:53;;;;;;;5.20;4.80;;;4.00;96.20;;;;;;5084136;28;21555;-77
2023/04/05 03:06:21;;;;;;;5.07;4.70;;;4.00;96.20;;;;;;5079934;28;20224;-77
2023/04/05 03:08:48;;;;;;;4.35;3.90;;;4.00;96.10;;;;;;5084194;28;20994;-77
2023/04/05 03:11:17;;;;;;;5.60;5.20;;;4.00;95.90;;;;;;5086044;28;20618;-76
2023/04/05 03:13:44;;;;;;;4.90;4.47;;;4.00;95.90;;;;;;5083445;28;20208;-77
2023/04/05 03:16:11;;;;;;;5.80;5.30;;;4.00;95.60;;;;;;5086061;28;20216;-77
2023/04/05 03:18:38;;;;;;;4.78;4.38;;;3.90;95.60;;;;;;5078331;28;20206;-76
2023/04/05 03:21:05;;;;;;;5.30;4.90;;;3.90;95.60;;;;;;5083773;28;20263;-77
2023/04/05 03:23:32;;;;;;;5.22;4.72;;;3.90;95.70;;;;;;5083137;28;20202;-78
2023/04/05 03:26:00;;;;;;;5.60;5.20;;;3.90;95.70;;;;;;5083987;28;20197;-77
2023/04/05 03:28:28;;;;;;;5.68;5.18;;;3.90;95.80;;;;;;5083495;28;20707;-78
2023/04/05 03:30:56;;;;;;;5.85;4.68;;;3.90;96.50;;;;;;5083209;28;20253;-77
2023/04/05 03:33:23;;;;;;;5.28;4.88;;;3.80;96.40;;;;;;5081389;28;20339;-77
2023/04/05 03:35:50;;;;;;;5.35;4.95;;;3.80;96.60;;;;;;5083101;28;20230;-76
2023/04/05 03:38:17;;;;;;;5.30;4.88;;;3.70;96.60;;;;;;5082467;28;20308;-76
2023/04/05 03:40:44;;;;;;;5.60;5.10;;;3.80;96.70;;;;;;5081551;28;20230;-76
2023/04/05 03:43:12;;;;;;;5.45;4.95;;;3.70;96.40;;;;;;5085704;28;20204;-76
2023/04/05 03:45:40;;;;;;;4.53;4.22;;;3.70;96.40;;;;;;5087483;28;20236;-76
2023/04/05 03:48:07;;;;;;;5.30;4.90;;;3.70;96.50;;;;;;5091497;28;20225;-76
2023/04/05 03:50:34;;;;;;;5.25;4.85;;;3.70;96.60;;;;;;5083644;28;20793;-76
2023/04/05 03:53:02;;;;;;;5.20;4.80;;;3.70;96.70;;;;;;5088477;28;20579;-76
2023/04/05 03:55:29;;;;;;;5.00;4.70;;;3.70;96.70;;;;;;5088978;28;20204;-77
2023/04/05 03:57:56;;;;;;;5.28;4.88;;;3.70;97.00;;;;;;5104232;28;20259;-77
2023/04/05 04:00:23;;;;;;;5.05;4.65;;;3.60;97.00;;;;;;5086499;28;20277;-75
2023/04/05 04:02:52;;;;;;;5.22;4.82;;;3.60;97.20;;;;;;5089838;28;20638;-76
2023/04/05 04:05:20;;;;;;;5.07;4.78;;;3.60;97.50;;;;;;5090094;28;20203;-76
2023/04/05 04:07:47;;;;;;;5.18;4.68;;;3.50;97.50;;;;;;5086601;28;20198;-76
2023/04/05 04:10:17;;;;;;;9.25;5.07;;;3.50;97.50;;;;;;5088674;28;21158;-76
2023/04/05 04:12:44;;;;;;;6.32;5.82;;;3.50;97.50;;;;;;5087502;28;20213;-76
2023/04/05 04:15:11;;;;;;;5.05;4.65;;;3.40;97.50;;;;;;5087982;28;20779;-76
2023/04/05 04:17:39;;;;;;;5.30;4.90;;;3.50;97.60;;;;;;5079489;28;20294;-76
2023/04/05 04:20:09;;;;;;;5.32;4.95;;;3.40;97.50;;;;;;5083237;28;20261;-76
2023/04/05 04:22:39;;;;;;;5.30;4.90;;;3.50;97.60;;;;;;5084846;28;20293;-76
2023/04/05 04:25:09;;;;;;;5.35;4.85;;;3.50;97.60;;;;;;5086657;28;20197;-76
2023/04/05 04:27:38;;;;;;;4.88;4.50;;;3.50;97.50;;;;;;5085284;28;20664;-76
2023/04/05 04:30:09;;;;;;;5.00;4.60;;;3.50;97.50;;;;;;5084376;28;20206;-76
2023/04/05 04:32:53;;;;;;;5.15;4.68;;;3.40;97.50;;;;;;5083038;28;20266;-76
2023/04/05 04:35:23;;;;;;;4.38;3.97;;;3.40;97.40;;;;;;5084734;28;20736;-76
2023/04/05 04:37:56;;;;;;;5.63;5.22;;;3.40;97.60;;;;;;5084559;28;20209;-76
2023/04/05 04:40:25;;;;;;;5.00;4.70;;;3.40;97.70;;;;;;5080224;28;20219;-76
2023/04/05 04:42:52;;;;;;;5.63;5.15;;;3.50;97.80;;;;;;5085003;28;20287;-76
2023/04/05 04:45:19;;;;;;;4.93;4.53;;;3.40;97.80;;;;;;5084998;28;20635;-76
2023/04/05 04:47:48;;;;;;;5.85;5.35;;;3.40;98.00;;;;;;5081844;28;20278;-77
2023/04/05 04:50:18;;;;;;;5.50;5.10;;;3.40;97.80;;;;;;5086731;28;20232;-76
2023/04/05 04:52:47;;;;;;;5.55;5.15;;;3.40;98.00;;;;;;5089693;28;20225;-76
2023/04/05 04:55:15;;;;;;;5.47;5.07;;;3.30;98.00;;;;;;5090062;28;20181;-76
2023/04/05 04:57:42;;;;;;;5.70;5.20;;;3.30;98.30;;;;;;5091476;28;20225;-76
2023/04/05 05:00:12;;;;;;;6.22;5.63;;;3.30;97.90;;;;;;5084113;28;20205;-76
2023/04/05 05:02:41;;;;;;;5.72;5.22;;;3.30;98.00;;;;;;5085239;28;20660;-76
2023/04/05 05:05:09;;;;;;;5.38;4.97;;;3.20;98.00;;;;;;5084173;28;20201;-77
2023/04/05 05:07:36;;;;;;;5.22;4.85;;;3.20;98.20;;;;;;5087115;28;20193;-77
2023/04/05 05:10:07;;;;;;;5.60;5.13;;;3.20;98.20;;;;;;5086774;28;20197;-77
2023/04/05 05:12:34;;;;;;;5.80;5.30;;;3.20;98.20;;;;;;5080810;28;20222;-78
2023/04/05 05:15:01;;;;;;;5.82;5.32;;;3.20;98.20;;;;;;5076468;28;21457;-77
2023/04/05 05:17:28;;;;;;;5.07;4.53;;;3.20;98.30;;;;;;5080610;28;20218;-77
2023/04/05 05:19:55;;;;;;;4.95;4.60;;;3.20;98.20;;;;;;5083926;28;20190;-76
2023/04/05 05:22:22;;;;;;;5.70;5.30;;;3.20;98.30;;;;;;5077824;28;20237;-77
2023/04/05 05:24:49;;;;;;;6.63;5.90;;;3.40;98.20;;;;;;5084624;28;20903;-78
2023/04/05 05:27:17;;;;;;;5.28;4.75;;;3.60;98.20;;;;;;5077677;28;20201;-77
2023/04/05 05:29:44;;;;;;;5.75;5.30;;;4.00;98.20;;;;;;5078808;28;20206;-76
2023/04/05 05:32:15;;;;;;;7.75;5.82;;;4.30;97.70;;;;;;5080048;28;20222;-77
2023/04/05 05:34:43;;;;;;;5.78;4.78;;;4.60;96.90;;;;;;5083151;28;20274;-77
2023/04/05 05:37:11;;;;;;;5.63;5.13;;;5.00;96.60;;;;;;5083989;28;20271;-78
2023/04/05 05:39:39;;;;;;;5.22;4.72;;;5.10;96.60;;;;;;5080528;28;20198;-77
2023/04/05 05:42:06;;;;;;;5.50;5.10;;;5.40;96.70;;;;;;5082174;28;20266;-76
2023/04/05 05:44:34;;;;;;;5.22;4.82;;;5.70;95.50;;;;;;5077807;28;20230;-77
2023/04/05 05:47:02;;;;;;;4.97;4.57;;;5.90;95.40;;;;;;5081247;28;20189;-77
2023/04/05 05:49:30;;;;;;;5.32;4.93;;;6.20;94.60;;;;;;5075529;28;20216;-77
2023/04/05 05:51:56;;;;;;;5.07;4.68;;;6.40;94.20;;;;;;5079904;28;20217;-76
2023/04/05 05:54:25;;;;;;;5.20;4.80;;;6.60;94.00;;;;;;5088150;28;20197;-78
2023/04/05 05:56:52;;;;;;;5.50;5.00;;;6.80;94.30;;;;;;5085592;28;20214;-79
2023/04/05 05:59:19;;;;;;;5.18;4.70;;;7.00;93.40;;;;;;5083550;28;20221;-79
2023/04/05 06:01:50;;;;;;;5.68;4.75;;;7.30;93.20;;;;;;5083706;28;20641;-79
2023/04/05 06:04:17;;;;;;;9.55;5.75;;;7.50;92.90;;;;;;5081969;28;20209;-77
2023/04/05 06:06:46;;;;;;;9.60;6.82;;;7.70;93.60;;;;;;5076182;28;20194;-75
2023/04/05 06:09:14;;;;;;;6.88;5.78;;;7.80;93.60;;;;;;5080188;28;20906;-76
2023/04/05 06:11:41;;;;;;;6.90;6.20;;;7.90;93.10;;;;;;5081258;28;20281;-78
2023/04/05 06:14:08;;;;;;;6.88;6.18;;;7.90;93.40;;;;;;5076668;28;20617;-75
2023/04/05 06:16:35;;;;;;;7.53;5.75;;;7.70;93.60;;;;;;5077581;28;20197;-75
2023/04/05 06:19:04;;;;;;;7.57;6.50;;;7.60;93.50;;;;;;5081057;28;20792;-78
2023/04/05 06:21:31;;;;;;;8.07;6.25;;;7.50;93.60;;;;;;5076083;28;20233;-76
2023/04/05 06:23:58;;;;;;;8.25;7.43;;;7.70;93.70;;;;;;5081021;28;20234;-79
2023/04/05 06:26:28;;;;;;;7.10;6.40;;;7.90;93.70;;;;;;5079694;28;20232;-79
2023/04/05 06:28:56;;;;;;;7.35;6.65;;;8.00;94.40;;;;;;5081105;28;20208;-77
2023/04/05 06:31:27;;;;;;;7.97;5.65;;;8.00;93.30;;;;;;5080501;28;20568;-78
2023/04/05 06:33:54;;;;;;;6.28;5.68;;;7.90;92.90;;;;;;5085328;28;20938;-78
2023/04/05 06:36:23;;;;;;;7.75;6.10;;;7.90;92.80;;;;;;5088574;28;20208;-77
2023/04/05 06:38:50;;;;;;;7.40;6.32;;;7.90;93.20;;;;;;5083448;28;20244;-79
2023/04/05 06:41:17;;;;;;;6.78;6.18;;;8.00;93.10;;;;;;5083960;28;20217;-77
2023/04/05 06:43:44;;;;;;;6.65;5.97;;;8.20;92.20;;;;;;5085423;28;20239;-78
2023/04/05 06:46:12;;;;;;;6.32;5.72;;;8.40;91.70;;;;;;5080866;28;20571;-78
2023/04/05 06:48:39;;;;;;;7.40;6.18;;;8.60;92.00;;;;;;5078999;28;20300;-79
2023/04/05 06:51:07;;;;;;;6.07;5.38;;;8.70;92.10;;;;;;5084741;28;20278;-78
2023/04/05 06:53:35;;;;;;;5.28;4.38;;;8.70;91.50;;;;;;5097161;28;20194;-78
2023/04/05 06:56:02;;;;;;;6.75;5.15;;;8.70;91.00;;;;;;5080099;28;20209;-78
2023/04/05 06:58:29;;;;;;;5.40;4.90;;;8.70;91.80;;;;;;5078990;28;20715;-79
2023/04/05 07:00:56;;;;;;;4.95;4.45;;;8.80;91.60;;;;;;5089235;28;20221;-78
2023/04/05 07:03:23;;;;;;;5.80;4.43;;;8.90;90.00;;;;;;5078908;28;20206;-77
2023/04/05 07:05:52;;;;;;;5.05;4.57;;;9.00;89.60;;;;;;5085886;28;20719;-79
2023/04/05 07:08:19;;;;;;;5.65;5.05;;;9.30;89.00;;;;;;5089624;28;20186;-77
2023/04/05 07:10:48;;;;;;;6.25;5.75;;;9.40;88.90;;;;;;5083637;28;20265;-79
2023/04/05 07:13:16;;;;;;;6.97;5.35;;;9.40;89.60;;;;;;5082611;28;20294;-77
2023/04/05 07:15:43;;;;;;;7.68;5.78;;;9.60;90.20;;;;;;5076189;28;20652;-76
2023/04/05 07:18:10;;;;;;;6.07;5.47;;;9.70;90.40;;;;;;5090702;28;20290;-76
2023/04/05 07:20:40;;;;;;;6.90;6.22;;;9.70;89.50;;;;;;5083193;28;20217;-76
2023/04/05 07:23:07;;;;;;;7.30;5.55;;;9.70;90.20;;;;;;5088619;28;20202;-76
2023/04/05 07:25:35;;;;;;;5.22;4.25;;;9.50;90.10;;;;;;5082388;28;20233;-76
2023/04/05 07:28:03;;;;;;;4.60;4.30;;;9.50;88.40;;;;;;5090863;28;20197;-76
2023/04/05 07:30:31;;;;;;;5.70;5.07;;;9.60;85.10;;;;;;5092029;28;20197;-79
2023/04/05 07:32:58;;;;;;;4.75;4.28;;;9.80;84.20;;;;;;5089627;28;20194;-77
2023/04/05 07:35:26;;;;;;;6.47;4.40;;;10.10;83.70;;;;;;5085388;28;20255;-80
2023/04/05 07:37:53;;;;;;;4.53;3.70;;;10.20;81.80;;;;;;5090061;28;20305;-77
2023/04/05 07:40:20;;;;;;;5.93;4.63;;;10.20;81.30;;;;;;5084016;28;20833;-77
2023/04/05 07:42:47;;;;;;;5.40;4.25;;;10.20;81.70;;;;;;5083720;28;20257;-76
2023/04/05 07:45:16;;;;;;;4.72;4.30;;;10.20;80.10;;;;;;5086505;28;20225;-76
2023/04/05 07:47:43;;;;;;;5.00;4.43;;;10.40;80.40;;;;;;5082549;28;20209;-77
2023/04/05 07:50:13;;;;;;;5.32;4.82;;;10.60;79.70;;;;;;5082877;28;20229;-76
2023/04/05 07:52:40;;;;;;;5.32;4.75;;;10.50;80.50;;;;;;5104812;28;20233;-76
2023/04/05 07:55:08;;;;;;;5.15;4.38;;;10.40;83.10;;;;;;5086417;28;20189;-76
2023/04/05 07:57:36;;;;;;;5.47;4.50;;;10.30;80.00;;;;;;5086196;28;20213;-76
2023/04/05 08:00:04;;;;;;;5.38;3.90;;;10.30;79.90;;;;;;5088404;28;20278;-77
2023/04/05 08:02:34;;;;;;;3.97;3.58;;;10.40;77.70;;;;;;5081567;28;20714;-77
2023/04/05 08:05:01;;;;;;;4.28;3.88;;;10.50;77.50;;;;;;5083766;28;20205;-79
2023/04/05 08:07:29;;;;;;;4.30;3.90;;;10.60;77.90;;;;;;5085643;28;20198;-78
2023/04/05 08:09:58;;;;;;;4.22;3.83;;;10.70;77.80;;;;;;5082238;28;20205;-77
2023/04/05 08:12:25;;;;;;;4.50;4.10;;;10.90;79.50;;;;;;5087673;28;20239;-75
2023/04/05 08:14:52;;;;;;;4.30;3.72;;;11.00;78.00;;;;;;5086029;28;20240;-76
2023/04/05 08:17:20;;;;;;;5.47;4.45;;;11.00;78.60;;;;;;5089322;28;20676;-75
2023/04/05 08:19:48;;;;;;;5.18;4.68;;;11.10;79.50;;;;;;5093449;28;20201;-75
2023/04/05 08:22:17;;;;;;;5.50;3.47;;;11.00;80.40;;;;;;5091447;28;20217;-75
2023/04/05 08:24:44;;;;;;;4.00;3.70;;;11.20;77.20;;;;;;5090247;28;20198;-77
2023/04/05 08:27:11;;;;;;;4.20;3.80;;;11.50;77.10;;;;;;5089410;28;20198;-76
2023/04/05 08:29:38;;;;;;;3.90;3.60;;;11.60;75.40;;;;;;5091358;28;20197;-76
2023/04/05 08:32:05;;;;;;;4.53;3.50;;;11.60;75.30;;;;;;5084719;28;20699;-77
2023/04/05 08:34:32;;;;;;;5.47;4.10;;;11.90;75.60;;;;;;5085549;28;20210;-76
2023/04/05 08:37:00;;;;;;;4.20;3.80;;;11.80;77.50;;;;;;5084173;28;20328;-76
2023/04/05 08:39:27;;;;;;;5.50;3.80;;;12.00;78.20;;;;;;5083067;28;20244;-76
2023/04/05 08:42:03;;;;;;;4.68;4.07;;;11.90;73.00;;;;;;5082917;28;20258;-76
2023/04/05 08:44:31;;;;;;;4.38;3.95;;;11.90;75.80;;;;;;5085689;28;20273;-76
2023/04/05 08:46:59;;;;;;;4.88;3.50;;;11.70;75.70;;;;;;5082710;28;20202;-74
2023/04/05 08:49:27;;;;;;;4.90;4.40;;;11.80;76.30;;;;;;5084309;28;20280;-78
2023/04/05 08:51:55;;;;;;;4.65;4.20;;;12.10;77.80;;;;;;5098012;28;20232;-76
2023/04/05 08:54:23;;;;;;;6.30;4.50;;;12.00;77.40;;;;;;5074248;28;20230;-76
2023/04/05 08:56:53;;;;;;;5.65;4.30;;;11.90;73.40;;;;;;5075892;28;20744;-76
2023/04/05 08:59:21;;;;;;;5.05;4.45;;;12.10;74.80;;;;;;5075296;28;21045;-77
2023/04/05 09:01:51;;;;;;;6.70;5.15;;;12.20;77.40;;;;;;5080484;28;20228;-77
2023/04/05 09:04:21;;;;;;;5.03;4.18;;;12.00;77.40;;;;;;5083344;28;20208;-77
2023/04/05 09:06:49;;;;;;;6.68;4.80;;;11.90;80.10;;;;;;5080472;28;20209;-77
2023/04/05 09:09:17;;;;;;;7.38;5.15;;;11.90;78.50;;;;;;5086875;28;20198;-77
2023/04/05 09:11:45;;;;;;;4.72;4.32;;;11.90;77.80;;;;;;5082116;28;20977;-77
2023/04/05 09:14:12;;;;;;;5.47;4.97;;;11.80;77.40;;;;;;5082034;28;20274;-77
2023/04/05 09:16:40;;;;;;;9.68;4.63;;;12.20;77.60;;;;;;5080888;28;20251;-78
2023/04/05 09:19:09;;;;;;;5.45;4.57;;;12.40;77.20;;;;;;5079221;28;20214;-76
2023/04/05 09:21:58;;;;;;;5.55;4.30;;;12.40;77.00;;;;;;5074207;28;20222;-75
2023/04/05 09:24:32;;;;;;;5.38;4.88;;;12.30;76.00;;;;;;5084027;28;20213;-77
2023/04/05 09:27:06;;;;;;;5.20;4.65;;;12.20;76.60;;;;;;5078387;28;20230;-76
2023/04/05 09:29:33;;;;;;;5.20;4.75;;;12.20;74.50;;;;;;5081637;28;20262;-77
2023/04/05 09:32:02;;;;;;;5.78;5.28;;;12.30;77.50;;;;;;5075221;28;20222;-77
2023/04/05 09:34:31;;;;;;;5.15;4.75;;;12.30;76.00;;;;;;5078321;28;20651;-76
2023/04/05 09:36:59;;;;;;;5.30;4.80;;;12.20;75.10;;;;;;5079119;28;20201;-76
2023/04/05 09:39:30;;;;;;;5.85;5.35;;;12.30;76.20;;;;;;5079023;28;20214;-77
2023/04/05 09:42:07;;;;;;;6.18;5.65;;;12.40;76.00;;;;;;5081971;28;20224;-76
2023/04/05 09:44:56;;;;;;;5.93;5.32;;;12.40;75.80;;;;;;5081196;28;20573;-78
2023/04/05 09:47:26;;;;;;;6.95;5.43;;;12.40;77.50;;;;;;5074673;28;20210;-77
2023/04/05 09:49:53;;;;;;;6.13;5.50;;;12.40;77.70;;;;;;5092159;28;20198;-78
2023/04/05 09:52:22;;;;;;;6.47;5.47;;;12.50;77.00;;;;;;5083563;28;20276;-75
2023/04/05 09:54:51;;;;;;;5.90;5.28;;;12.60;77.60;;;;;;5078881;28;20247;-78
2023/04/05 09:57:19;;;;;;;5.53;4.50;;;12.60;76.20;;;;;;5079414;28;20777;-75
2023/04/05 09:59:47;;;;;;;11.23;5.65;;;12.60;74.30;;;;;;5078440;28;20237;-78
2023/04/05 10:02:15;;;;;;;5.85;5.35;;;12.80;76.30;;;;;;5076076;28;20220;-74
2023/04/05 10:04:44;;;;;;;6.50;5.22;;;12.60;77.70;;;;;;5076408;28;20208;-78
2023/04/05 10:07:13;;;;;;;7.38;5.88;;;12.50;74.90;;;;;;5078718;28;20201;-78
2023/04/05 10:09:41;;;;;;;6.60;5.90;;;12.50;76.70;;;;;;5076509;28;20255;-77
2023/04/05 10:12:10;;;;;;;7.82;5.82;;;12.80;80.40;;;;;;5075771;28;20719;-75
2023/04/05 10:14:39;;;;;;;5.80;5.30;;;13.00;77.30;;;;;;5085310;28;20198;-77
2023/04/05 10:17:11;;;;;;;8.60;6.18;;;13.00;76.10;;;;;;5082042;28;20201;-76
2023/04/05 10:19:50;;;;;;;5.68;5.15;;;13.50;77.50;;;;;;5080743;28;20245;-76
2023/04/05 10:22:33;;;;;;;6.18;5.57;;;13.60;76.70;;;;;;5082766;28;20223;-77
2023/04/05 10:25:06;;;;;;;6.75;5.78;;;13.60;76.00;;;;;;5080938;28;20312;-76
2023/04/05 10:27:39;;;;;;;8.13;5.20;;;13.50;75.90;;;;;;5083780;28;20269;-77
2023/04/05 10:30:09;;;;;;;5.43;4.93;;;13.40;76.40;;;;;;5086802;28;20212;-77
2023/04/05 10:32:52;;;;;;;9.45;6.10;;;13.40;76.10;;;;;;5083230;28;20213;-76
2023/04/05 10:35:25;;;;;;;6.63;6.00;;;13.40;77.10;;;;;;5080113;28;20206;-75
2023/04/05 10:38:06;;;;;;;6.78;6.07;;;13.30;77.50;;;;;;5082296;28;20263;-77
2023/04/05 10:40:34;;;;;;;5.85;5.35;;;13.30;77.10;;;;;;5075657;28;20197;-74
2023/04/05 10:43:01;;;;;;;6.78;5.60;;;13.30;76.40;;;;;;5070424;28;20282;-73
2023/04/05 10:45:31;;;;;;;6.00;5.28;;;13.40;74.60;;;;;;5076497;28;20233;-74
2023/04/05 10:48:06;;;;;;;6.07;4.90;;;13.30;73.60;;;;;;5092363;28;20303;-74
2023/04/05 10:50:33;;;;;;;5.90;5.22;;;13.30;74.90;;;;;;5078789;28;20225;-74
2023/04/05 10:53:01;;;;;;;6.05;5.20;;;13.50;75.80;;;;;;5077633;28;20225;-74
2023/04/05 10:55:28;;;;;;;6.25;4.82;;;13.40;73.50;;;;;;5078430;28;20198;-76
2023/04/05 10:57:56;;;;;;;8.20;5.05;;;13.50;74.00;;;;;;5079962;28;20194;-76
2023/04/05 11:00:25;;;;;;;6.38;4.63;;;13.50;72.60;;;;;;5078283;28;20707;-75
2023/04/05 11:02:56;;;;;;;5.50;4.85;;;13.50;71.70;;;;;;5079979;28;20214;-76
2023/04/05 11:05:31;;;;;;;7.07;5.20;;;13.50;72.10;;;;;;5079877;28;20201;-76
2023/04/05 11:08:02;;;;;;;6.38;5.78;;;13.40;73.10;;;;;;5082007;28;20260;-75
2023/04/05 11:10:30;;;;;;;5.93;4.93;;;13.30;73.40;;;;;;5074577;28;20667;-75
2023/04/05 11:13:09;;;;;;;5.88;5.22;;;13.60;72.80;;;;;;5080663;28;20213;-75
2023/04/05 11:15:37;;;;;;;5.72;5.22;;;13.80;73.80;;;;;;5077302;28;20213;-75
2023/04/05 11:18:10;;;;;;;5.32;4.85;;;13.90;72.30;;;;;;5079188;28;20608;-74
2023/04/05 11:20:44;;;;;;;6.10;5.10;;;13.90;73.00;;;;;;5078539;28;20300;-75
2023/04/05 11:23:13;;;;;;;5.72;5.15;;;13.90;72.20;;;;;;5081313;28;20208;-76
2023/04/05 11:25:45;;;;;;;5.70;4.88;;;14.00;72.60;;;;;;5079169;28;20201;-75
2023/04/05 11:28:23;;;;;;;5.60;5.05;;;13.80;71.20;;;;;;5075484;28;20277;-74
2023/04/05 11:30:52;;;;;;;7.47;5.78;;;13.80;71.40;;;;;;5080066;28;20201;-75
2023/04/05 11:33:53;;;;;;;9.05;5.22;;;14.00;71.30;;;;;;5081213;28;20206;-74
2023/04/05 11:36:36;;;;;;;5.97;5.03;;;13.90;70.30;;;;;;5078174;28;20217;-75
2023/04/05 11:39:26;;;;;;;6.03;5.20;;;13.90;72.10;;;;;;5078000;28;20630;-74
2023/04/05 11:42:00;;;;;;;5.72;4.72;;;13.90;70.00;;;;;;5079105;28;20324;-73
2023/04/05 11:44:27;;;;;;;4.82;4.43;;;14.10;69.10;;;;;;5086839;28;20205;-74
2023/04/05 11:46:55;;;;;;;7.18;4.80;;;14.30;69.40;;;;;;5099886;28;20186;-74
2023/04/05 11:49:24;;;;;;;6.00;5.00;;;14.20;68.90;;;;;;5087362;28;20202;-74
2023/04/05 11:51:52;;;;;;;5.75;4.55;;;14.10;69.50;;;;;;5077870;28;20247;-74
2023/04/05 11:54:32;;;;;;;4.93;4.40;;;14.00;69.40;;;;;;5074805;28;20221;-73
2023/04/05 11:56:59;;;;;;;5.68;4.70;;;14.20;70.20;;;;;;5084395;28;20201;-73
2023/04/05 11:59:30;;;;;;;5.43;4.85;;;14.20;67.50;;;;;;5072756;28;20303;-74
2023/04/05 12:02:02;;;;;;;6.40;4.28;;;14.30;67.10;;;;;;5075950;28;20301;-73
2023/04/05 12:04:31;;;;;;;4.88;4.38;;;14.20;67.50;;;;;;5082805;28;20795;-74
2023/04/05 12:07:15;;;;;;;4.88;4.30;;;14.10;67.70;;;;;;5081328;28;20198;-73
2023/04/05 12:10:02;;;;;;;4.95;4.47;;;14.30;66.70;;;;;;5079728;28;20787;-74
2023/04/05 12:12:34;;;;;;;4.68;4.28;;;14.40;65.90;;;;;;5081959;28;20221;-74
2023/04/05 12:15:02;;;;;;;5.65;4.53;;;14.30;66.00;;;;;;5082709;28;20672;-74
2023/04/05 12:17:43;;;;;;;4.85;4.38;;;14.40;66.40;;;;;;5076169;28;20282;-74
2023/04/05 12:20:12;;;;;;;5.80;4.53;;;14.30;64.70;;;;;;5079822;28;20844;-73
2023/04/05 12:22:41;;;;;;;4.95;4.43;;;14.30;66.20;;;;;;5080769;28;20221;-74
2023/04/05 12:25:09;;;;;;;4.38;3.97;;;14.30;65.00;;;;;;5081765;28;20229;-72
2023/04/05 12:27:36;;;;;;;4.30;3.90;;;14.40;64.00;;;;;;5079499;28;20633;-74
2023/04/05 12:30:15;;;;;;;10.73;4.05;;;14.50;64.40;;;;;;5081009;28;20725;-74
2023/04/05 12:32:46;;;;;;;4.50;4.07;;;14.80;63.70;;;;;;5078624;28;20679;-74
2023/04/05 12:35:16;;;;;;;4.20;3.80;;;14.90;63.30;;;;;;5080472;28;20206;-74
2023/04/05 12:37:43;;;;;;;6.00;4.07;;;14.80;61.80;;;;;;5081519;28;20195;-74
2023/04/05 12:40:11;;;;;;;3.92;3.35;;;15.00;62.50;;;;;;5075539;28;20304;-73
2023/04/05 12:42:39;;;;;;;4.53;3.50;;;15.10;60.40;;;;;;5082161;28;20244;-73
2023/04/05 12:45:09;;;;;;;5.05;3.60;;;15.30;62.10;;;;;;5089434;28;20182;-72
2023/04/05 12:47:47;;;;;;;5.78;4.00;;;15.30;61.50;;;;;;5084505;28;20758;-74
2023/04/05 12:50:17;;;;;;;4.15;3.75;;;15.30;61.30;;;;;;5075458;28;21002;-74
2023/04/05 12:52:58;;;;;;;5.35;4.10;;;15.40;61.50;;;;;;5079354;28;20325;-74
2023/04/05 12:55:26;;;;;;;3.70;3.40;;;15.40;62.60;;;;;;5080510;28;20291;-73
2023/04/05 12:57:53;;;;;;;3.33;3.03;;;15.40;61.50;;;;;;5080338;28;20511;-73
2023/04/05 13:00:24;;;;;;;5.88;3.00;;;15.50;59.20;;;;;;5082643;28;20214;-76
2023/04/05 13:02:52;;;;;;;4.38;3.33;;;15.50;57.30;;;;;;5079332;28;20249;-77
2023/04/05 13:05:22;;;;;;;4.32;3.47;;;15.50;59.80;;;;;;5076666;28;20285;-74